createdAt,value
2019-04-10T00:00:56.641Z,9.8
2019-04-10T00:01:57.933Z,9.9
2019-04-10T00:02:57.781Z,9.9
2019-04-10T00:03:56.873Z,10
2019-04-10T00:04:56.951Z,10
2019-04-10T00:05:56.990Z,10.1
2019-04-10T00:07:08.293Z,10.2
2019-04-10T00:07:57.575Z,10.1
2019-04-10T00:08:57.158Z,9.9
2019-04-10T00:09:57.358Z,10
2019-04-10T00:10:58.382Z,10
2019-04-10T00:11:57.315Z,10.1
2019-04-10T00:12:58.243Z,10.2
2019-04-10T00:13:57.379Z,10.2
2019-04-10T00:14:57.453Z,10.2
2019-04-10T00:15:57.541Z,10
2019-04-10T00:16:57.564Z,9.8
2019-04-10T00:17:57.802Z,9.8
2019-04-10T00:18:58.124Z,9.9
2019-04-10T00:19:58.085Z,10
2019-04-10T00:20:58.595Z,9.9
2019-04-10T00:21:57.860Z,10
2019-04-10T00:22:58.221Z,10.1
2019-04-10T00:23:57.922Z,10.1
2019-04-10T00:24:58.012Z,10
2019-04-10T00:25:58.075Z,10.1
2019-04-10T00:26:58.485Z,10.1
2019-04-10T00:27:59.016Z,10.1
2019-04-10T00:28:58.229Z,10.1
2019-04-10T00:29:58.291Z,10.1
2019-04-10T00:30:58.352Z,10.1
2019-04-10T00:32:01.153Z,10
2019-04-10T00:32:58.585Z,10
2019-04-10T00:33:58.952Z,10
2019-04-10T00:34:58.811Z,10
2019-04-10T00:35:59.489Z,9.9
2019-04-10T00:36:59.535Z,9.7
2019-04-10T00:37:59.547Z,9.8
2019-04-10T00:38:58.844Z,9.9
2019-04-10T00:39:59.145Z,9.9
2019-04-10T00:40:59.583Z,9.9
2019-04-10T00:41:58.982Z,9.8
2019-04-10T00:43:00.201Z,9.6
2019-04-10T00:43:59.370Z,9.8
2019-04-10T00:44:59.728Z,9.9
2019-04-10T00:45:59.898Z,9.8
2019-04-10T00:46:59.292Z,9.7
2019-04-10T00:47:59.538Z,9.6
2019-04-10T00:48:59.359Z,9.7
2019-04-10T00:49:59.398Z,9.8
2019-04-10T00:50:59.470Z,9.9
2019-04-10T00:51:59.650Z,9.8
2019-04-10T00:52:59.612Z,9.9
2019-04-10T00:53:59.647Z,9.8
2019-04-10T00:54:59.731Z,9.8
2019-04-10T00:55:59.937Z,9.8
2019-04-10T00:56:59.842Z,9.6
2019-04-10T00:58:00.055Z,9.6
2019-04-10T00:58:59.988Z,9.5
2019-04-10T01:00:00.958Z,9.5
2019-04-10T01:01:00.337Z,9.4
2019-04-10T01:02:00.507Z,9.5
2019-04-10T01:03:00.867Z,9.6
2019-04-10T01:04:00.526Z,9.6
2019-04-10T01:05:00.527Z,9.6
2019-04-10T01:06:01.719Z,9.6
2019-04-10T01:07:00.679Z,9.5
2019-04-10T01:08:00.567Z,9.7
2019-04-10T01:09:01.348Z,9.7
2019-04-10T01:10:00.670Z,9.4
2019-04-10T01:11:01.033Z,9.4
2019-04-10T01:12:00.861Z,9.6
2019-04-10T01:13:00.895Z,9.4
2019-04-10T01:14:01.206Z,9.3
2019-04-10T01:15:00.984Z,9.3
2019-04-10T01:16:01.043Z,9
2019-04-10T01:17:02.120Z,9.1
2019-04-10T01:18:02.452Z,9.1
2019-04-10T01:19:01.714Z,9.2
2019-04-10T01:20:01.279Z,9.2
2019-04-10T01:21:01.979Z,9.1
2019-04-10T01:22:01.440Z,9
2019-04-10T01:23:01.507Z,9
2019-04-10T01:24:01.527Z,9.2
2019-04-10T01:25:02.140Z,9.3
2019-04-10T01:26:01.665Z,9.3
2019-04-10T01:27:01.723Z,9.4
2019-04-10T01:28:02.667Z,9.5
2019-04-10T01:29:02.925Z,9.5
2019-04-10T01:30:02.325Z,9.2
2019-04-10T01:31:02.493Z,9
2019-04-10T01:32:01.985Z,8.9
2019-04-10T01:33:02.029Z,8.9
2019-04-10T01:34:03.125Z,8.9
2019-04-10T01:35:02.438Z,9
2019-04-10T01:36:02.753Z,9.1
2019-04-10T01:37:02.717Z,9.1
2019-04-10T01:38:04.543Z,9.2
2019-04-10T01:39:02.519Z,9.3
2019-04-10T01:40:02.635Z,9.3
2019-04-10T01:41:03.596Z,9.3
2019-04-10T01:42:02.597Z,9.3
2019-04-10T01:43:09.615Z,9.3
2019-04-10T01:44:03.448Z,9.3
2019-04-10T01:45:02.959Z,9.3
2019-04-10T01:46:02.846Z,9.4
2019-04-10T01:47:02.881Z,9.3
2019-04-10T01:48:03.736Z,9.2
2019-04-10T01:49:05.103Z,9.2
2019-04-10T01:50:04.381Z,9
2019-04-10T01:51:03.252Z,8.9
2019-04-10T01:52:03.213Z,8.8
2019-04-10T01:53:03.725Z,8.7
2019-04-10T01:54:03.885Z,8.7
2019-04-10T01:55:16.737Z,8.7
2019-04-10T01:56:03.450Z,8.8
2019-04-10T01:57:04.084Z,8.8
2019-04-10T01:58:03.564Z,8.8
2019-04-10T01:59:03.628Z,8.8
2019-04-10T02:00:04.595Z,8.7
2019-04-10T02:01:03.929Z,8.7
2019-04-10T02:02:03.841Z,8.7
2019-04-10T02:03:03.854Z,8.7
2019-04-10T02:04:05.162Z,8.9
2019-04-10T02:05:04.091Z,8.9
2019-04-10T02:06:05.081Z,8.9
2019-04-10T02:07:04.119Z,9
2019-04-10T02:08:08.909Z,8.9
2019-04-10T02:09:04.525Z,8.9
2019-04-10T02:10:05.084Z,8.7
2019-04-10T02:11:04.765Z,8.6
2019-04-10T02:12:04.466Z,8.7
2019-04-10T02:13:05.331Z,8.8
2019-04-10T02:14:04.479Z,8.8
2019-04-10T02:15:04.810Z,8.9
2019-04-10T02:16:04.580Z,8.8
2019-04-10T02:17:04.688Z,8.7
2019-04-10T02:18:05.356Z,8.6
2019-04-10T02:19:06.809Z,8.5
2019-04-10T02:20:04.900Z,8.6
2019-04-10T02:21:04.890Z,8.7
2019-04-10T02:22:04.996Z,8.7
2019-04-10T02:23:05.800Z,8.7
2019-04-10T02:24:05.119Z,8.8
2019-04-10T02:25:05.318Z,8.8
2019-04-10T02:26:05.413Z,8.8
2019-04-10T02:27:05.752Z,8.8
2019-04-10T02:28:05.406Z,8.8
2019-04-10T02:29:05.585Z,8.7
2019-04-10T02:30:07.593Z,8.8
2019-04-10T02:31:06.988Z,8.7
2019-04-10T02:32:05.886Z,8.6
2019-04-10T02:33:06.150Z,8.6
2019-04-10T02:34:07.434Z,8.6
2019-04-10T02:35:06.943Z,8.7
2019-04-10T02:36:05.851Z,8.7
2019-04-10T02:37:06.707Z,8.7
2019-04-10T02:38:25.770Z,8.7
2019-04-10T02:39:17.492Z,8.7
2019-04-10T02:40:07.579Z,8.7
2019-04-10T02:41:06.469Z,8.7
2019-04-10T02:42:06.245Z,8.7
2019-04-10T02:43:07.929Z,8.6
2019-04-10T02:44:06.167Z,8.3
2019-04-10T02:45:06.280Z,8.4
2019-04-10T02:46:06.902Z,8.1
2019-04-10T02:47:06.531Z,8.2
2019-04-10T02:48:07.997Z,8.1
2019-04-10T02:49:08.023Z,8.2
2019-04-10T02:50:08.276Z,8.3
2019-04-10T02:51:07.595Z,8.2
2019-04-10T02:52:06.846Z,8.2
2019-04-10T02:53:07.738Z,8.3
2019-04-10T02:54:06.778Z,8.3
2019-04-10T02:55:07.690Z,8.1
2019-04-10T02:56:07.232Z,8.1
2019-04-10T02:57:07.417Z,7.9
2019-04-10T02:58:07.878Z,7.9
2019-04-10T02:59:07.285Z,8
2019-04-10T03:00:08.264Z,8.1
2019-04-10T03:01:07.166Z,8.1
2019-04-10T03:02:08.494Z,8.1
2019-04-10T03:03:07.301Z,8.1
2019-04-10T03:04:07.821Z,7.9
2019-04-10T03:05:07.745Z,8
2019-04-10T03:06:08.867Z,8
2019-04-10T03:07:07.741Z,8.1
2019-04-10T03:08:08.855Z,8
2019-04-10T03:09:25.728Z,8
2019-04-10T03:10:17.214Z,8.1
2019-04-10T03:11:11.361Z,8.2
2019-04-10T03:12:08.391Z,8.1
2019-04-10T03:13:08.974Z,8.1
2019-04-10T03:14:08.529Z,8.1
2019-04-10T03:15:09.958Z,8
2019-04-10T03:16:08.113Z,8.1
2019-04-10T03:17:08.101Z,8
2019-04-10T03:18:08.323Z,7.9
2019-04-10T03:19:08.189Z,8
2019-04-10T03:20:08.227Z,8.1
2019-04-10T03:22:08.965Z,7.9
2019-04-10T03:23:09.295Z,7.9
2019-04-10T03:24:08.411Z,8.1
2019-04-10T03:25:08.936Z,8.1
2019-04-10T03:26:09.419Z,8.1
2019-04-10T03:27:08.620Z,8.1
2019-04-10T03:29:08.741Z,7.8
2019-04-10T03:30:10.820Z,7.7
2019-04-10T03:31:10.425Z,7.7
2019-04-10T03:32:10.371Z,7.8
2019-04-10T03:33:11.983Z,8
2019-04-10T03:34:13.098Z,8
2019-04-10T03:35:09.013Z,8
2019-04-10T03:36:09.496Z,7.8
2019-04-10T03:37:09.676Z,7.7
2019-04-10T03:38:09.815Z,7.8
2019-04-10T03:39:10.529Z,7.8
2019-04-10T03:40:09.278Z,7.7
2019-04-10T03:42:09.377Z,7.7
2019-04-10T03:43:09.741Z,7.6
2019-04-10T03:44:10.261Z,7.8
2019-04-10T03:45:09.637Z,7.7
2019-04-10T03:46:09.602Z,7.7
2019-04-10T03:47:09.646Z,7.8
2019-04-10T03:48:09.784Z,7.8
2019-04-10T03:49:09.790Z,7.8
2019-04-10T03:51:09.897Z,7.5
2019-04-10T03:52:10.125Z,7.5
2019-04-10T03:53:10.028Z,7.5
2019-04-10T03:54:11.069Z,7.5
2019-04-10T03:55:10.453Z,7.6
2019-04-10T03:56:10.187Z,7.5
2019-04-10T03:57:10.301Z,7.4
2019-04-10T03:58:11.328Z,7.3
2019-04-10T03:59:10.393Z,7.4
2019-04-10T04:00:10.435Z,7.4
2019-04-10T04:01:10.988Z,7.4
2019-04-10T04:02:11.607Z,7.4
2019-04-10T04:03:10.709Z,7.4
2019-04-10T04:04:10.670Z,7.1
2019-04-10T04:05:10.764Z,7.2
2019-04-10T04:06:11.126Z,7.3
2019-04-10T04:07:11.287Z,7.4
2019-04-10T04:08:11.002Z,7.1
2019-04-10T04:09:12.886Z,7
2019-04-10T04:10:11.065Z,7.1
2019-04-10T04:11:11.081Z,7.2
2019-04-10T04:12:11.150Z,7.3
2019-04-10T04:13:11.271Z,7.3
2019-04-10T04:14:12.277Z,7.4
2019-04-10T04:15:11.428Z,7.2
2019-04-10T04:16:11.487Z,7.3
2019-04-10T04:17:11.586Z,7.4
2019-04-10T04:18:12.967Z,7.4
2019-04-10T04:19:11.507Z,7.3
2019-04-10T04:20:11.558Z,7.3
2019-04-10T04:21:11.788Z,7.4
2019-04-10T04:22:12.519Z,7.3
2019-04-10T04:23:11.726Z,7.4
2019-04-10T04:24:12.380Z,7.4
2019-04-10T04:25:12.811Z,7.3
2019-04-10T04:26:12.680Z,7.1
2019-04-10T04:27:13.159Z,7.1
2019-04-10T04:28:12.070Z,7.3
2019-04-10T04:29:12.033Z,7.4
2019-04-10T04:30:12.590Z,7.3
2019-04-10T04:31:12.858Z,7.1
2019-04-10T04:32:13.167Z,7
2019-04-10T04:33:12.979Z,6.9
2019-04-10T04:34:12.350Z,6.8
2019-04-10T04:35:13.378Z,6.9
2019-04-10T04:36:12.456Z,6.9
2019-04-10T04:37:12.616Z,6.7
2019-04-10T04:38:13.418Z,6.7
2019-04-10T04:39:18.508Z,6.8
2019-04-10T04:40:13.156Z,6.8
2019-04-10T04:41:13.265Z,6.9
2019-04-10T04:42:12.849Z,7
2019-04-10T04:43:12.841Z,7.2
2019-04-10T04:44:12.872Z,7.2
2019-04-10T04:45:12.880Z,7.2
2019-04-10T04:46:14.050Z,7.1
2019-04-10T04:47:13.351Z,6.9
2019-04-10T04:48:13.086Z,6.8
2019-04-10T04:49:13.662Z,6.9
2019-04-10T04:50:13.195Z,7.1
2019-04-10T04:51:13.307Z,7.1
2019-04-10T04:52:14.234Z,6.8
2019-04-10T04:53:14.242Z,6.9
2019-04-10T04:54:13.357Z,7.1
2019-04-10T04:55:14.197Z,7.3
2019-04-10T04:56:13.667Z,7.1
2019-04-10T04:57:13.572Z,7.1
2019-04-10T04:58:13.820Z,7.1
2019-04-10T04:59:14.180Z,7.1
2019-04-10T05:00:13.679Z,7
2019-04-10T05:01:14.681Z,6.9
2019-04-10T05:02:14.312Z,7
2019-04-10T05:03:13.886Z,7
2019-04-10T05:04:15.107Z,7
2019-04-10T05:05:14.307Z,7
2019-04-10T05:06:14.088Z,6.7
2019-04-10T05:07:14.873Z,6.7
2019-04-10T05:08:15.033Z,7
2019-04-10T05:09:25.807Z,7.1
2019-04-10T05:10:15.276Z,7.1
2019-04-10T05:11:14.321Z,7.2
2019-04-10T05:12:16.302Z,6.9
2019-04-10T05:13:14.553Z,6.7
2019-04-10T05:14:15.324Z,6.9
2019-04-10T05:15:14.584Z,6.8
2019-04-10T05:16:14.613Z,7
2019-04-10T05:17:24.953Z,7
2019-04-10T05:18:14.737Z,7.1
2019-04-10T05:19:17.233Z,6.8
2019-04-10T05:20:14.874Z,6.9
2019-04-10T05:21:14.969Z,7
2019-04-10T05:22:15.070Z,6.9
2019-04-10T05:23:15.796Z,6.9
2019-04-10T05:24:15.759Z,6.8
2019-04-10T05:25:15.146Z,6.9
2019-04-10T05:26:15.192Z,7
2019-04-10T05:27:16.042Z,6.6
2019-04-10T05:28:15.451Z,6.7
2019-04-10T05:29:15.464Z,6.6
2019-04-10T05:30:16.385Z,6.8
2019-04-10T05:31:15.480Z,6.8
2019-04-10T05:32:15.857Z,6.6
2019-04-10T05:33:16.209Z,6.6
2019-04-10T05:34:15.778Z,6.7
2019-04-10T05:35:15.735Z,6.7
2019-04-10T05:36:15.752Z,6.7
2019-04-10T05:37:15.917Z,6.8
2019-04-10T05:38:16.546Z,6.7
2019-04-10T05:39:16.832Z,6.5
2019-04-10T05:40:15.990Z,6.7
2019-04-10T05:41:17.547Z,6.6
2019-04-10T05:42:16.852Z,6.6
2019-04-10T05:43:16.357Z,6.5
2019-04-10T05:44:16.663Z,6.2
2019-04-10T05:45:16.994Z,6.2
2019-04-10T05:46:16.543Z,6.3
2019-04-10T05:47:21.515Z,6.3
2019-04-10T05:48:17.416Z,6.5
2019-04-10T05:49:17.118Z,6.6
2019-04-10T05:50:16.555Z,6.4
2019-04-10T05:51:17.063Z,6.6
2019-04-10T05:52:16.690Z,6.4
2019-04-10T05:53:18.421Z,6.3
2019-04-10T05:54:17.106Z,6.6
2019-04-10T05:55:17.488Z,6.9
2019-04-10T05:56:16.934Z,6.8
2019-04-10T05:57:17.995Z,6.6
2019-04-10T05:58:17.731Z,6.7
2019-04-10T05:59:17.759Z,6.6
2019-04-10T06:00:19.138Z,6.8
2019-04-10T06:01:18.944Z,6.9
2019-04-10T06:02:18.000Z,6.8
2019-04-10T06:03:18.608Z,6.7
2019-04-10T06:04:18.944Z,6.8
2019-04-10T06:05:18.202Z,6.6
2019-04-10T06:06:17.580Z,6.6
2019-04-10T06:07:19.236Z,6.7
2019-04-10T06:08:18.891Z,6.8
2019-04-10T06:09:17.783Z,6.8
2019-04-10T06:10:17.719Z,6.8
2019-04-10T06:11:18.890Z,6.8
2019-04-10T06:12:18.125Z,6.9
2019-04-10T06:13:19.224Z,6.8
2019-04-10T06:14:18.445Z,7
2019-04-10T06:15:21.072Z,6.9
2019-04-10T06:16:19.471Z,7
2019-04-10T06:17:20.530Z,7
2019-04-10T06:18:18.711Z,7.1
2019-04-10T06:19:19.935Z,7.2
2019-04-10T06:20:18.766Z,7.2
2019-04-10T06:21:20.972Z,7.2
2019-04-10T06:22:19.057Z,7.1
2019-04-10T06:23:20.330Z,7.2
2019-04-10T06:24:20.362Z,7.4
2019-04-10T06:25:21.590Z,7.3
2019-04-10T06:26:23.659Z,6.8
2019-04-10T06:27:19.221Z,6.7
2019-04-10T06:28:19.232Z,6.7
2019-04-10T06:29:19.752Z,6.8
2019-04-10T06:30:19.665Z,6.8
2019-04-10T06:31:19.357Z,6.9
2019-04-10T06:32:19.688Z,6.8
2019-04-10T06:33:20.221Z,6.7
2019-04-10T06:34:20.527Z,6.7
2019-04-10T06:35:21.863Z,6.8
2019-04-10T06:36:21.534Z,6.8
2019-04-10T06:37:19.912Z,6.8
2019-04-10T06:38:19.686Z,7
2019-04-10T06:39:21.503Z,7
2019-04-10T06:40:25.778Z,7.2
2019-04-10T06:41:19.597Z,6.9
2019-04-10T06:42:20.367Z,7.2
2019-04-10T06:43:20.985Z,7.4
2019-04-10T06:44:21.650Z,7.5
2019-04-10T06:45:20.127Z,7.5
2019-04-10T06:46:20.270Z,7.5
2019-04-10T06:47:20.297Z,7.4
2019-04-10T06:48:20.072Z,7.4
2019-04-10T06:49:20.624Z,7.3
2019-04-10T06:50:21.043Z,7.4
2019-04-10T06:51:21.585Z,7.4
2019-04-10T06:52:20.648Z,7.2
2019-04-10T06:53:20.552Z,7.2
2019-04-10T06:53:20.600Z,6.9
2019-04-10T06:54:20.546Z,7.1
2019-04-10T06:55:21.526Z,7
2019-04-10T06:56:20.924Z,6.8
2019-04-10T06:57:22.913Z,6.9
2019-04-10T06:58:20.579Z,6.8
2019-04-10T06:59:21.205Z,6.9
2019-04-10T07:00:21.358Z,7.2
2019-04-10T07:01:21.398Z,7.3
2019-04-10T07:02:26.974Z,7.3
2019-04-10T07:03:21.148Z,7.2
2019-04-10T07:04:22.964Z,7.2
2019-04-10T07:05:21.947Z,7.3
2019-04-10T07:06:22.639Z,7.3
2019-04-10T07:07:23.826Z,7.2
2019-04-10T07:08:23.962Z,7.4
2019-04-10T07:09:24.304Z,7.4
2019-04-10T07:10:28.047Z,7.3
2019-04-10T07:11:22.985Z,7.4
2019-04-10T07:12:23.818Z,7.7
2019-04-10T07:13:21.392Z,8.2
2019-04-10T07:14:22.492Z,8.1
2019-04-10T07:15:23.838Z,7.9
2019-04-10T07:16:21.562Z,7.9
2019-04-10T07:17:22.001Z,7.9
2019-04-10T07:18:22.083Z,8.1
2019-04-10T07:19:22.364Z,8.3
2019-04-10T07:20:22.417Z,8.5
2019-04-10T07:21:22.208Z,8.7
2019-04-10T07:22:22.859Z,8.9
2019-04-10T07:23:26.859Z,8.8
2019-04-10T07:24:22.883Z,8.8
2019-04-10T07:25:22.104Z,9
2019-04-10T07:26:41.917Z,8.9
2019-04-10T07:27:22.257Z,9.2
2019-04-10T07:28:23.716Z,9.5
2019-04-10T07:29:26.582Z,9.6
2019-04-10T07:30:26.002Z,9.3
2019-04-10T07:31:23.453Z,9.3
2019-04-10T07:32:24.215Z,9.4
2019-04-10T07:33:23.006Z,9.6
2019-04-10T07:34:25.474Z,9.9
2019-04-10T07:35:23.661Z,10
2019-04-10T07:36:22.810Z,9.6
2019-04-10T07:37:24.384Z,9.7
2019-04-10T07:38:22.907Z,9.4
2019-04-10T07:39:25.953Z,9
2019-04-10T07:40:22.995Z,9
2019-04-10T07:41:25.686Z,9.1
2019-04-10T07:42:28.307Z,9
2019-04-10T07:43:27.120Z,8.9
2019-04-10T07:44:23.255Z,9
2019-04-10T07:45:26.254Z,9.3
2019-04-10T07:46:23.987Z,9.5
2019-04-10T07:47:23.723Z,9.4
2019-04-10T07:48:23.495Z,9
2019-04-10T07:49:26.595Z,9.1
2019-04-10T07:50:23.599Z,9.1
2019-04-10T07:51:23.660Z,9.3
2019-04-10T07:52:24.055Z,9.7
2019-04-10T07:53:24.632Z,10
2019-04-10T07:54:24.539Z,10
2019-04-10T07:55:23.941Z,9.9
2019-04-10T07:56:24.534Z,9.8
2019-04-10T07:57:24.532Z,9.7
2019-04-10T07:58:24.138Z,9.7
2019-04-10T07:59:25.036Z,9.8
2019-04-10T08:00:25.306Z,9.8
2019-04-10T08:01:24.370Z,9.7
2019-04-10T08:02:25.404Z,9.5
2019-04-10T08:03:25.462Z,9.6
2019-04-10T08:04:24.454Z,9.7
2019-04-10T08:05:25.034Z,9.9
2019-04-10T08:06:25.644Z,10.3
2019-04-10T08:07:30.310Z,10.3
2019-04-10T08:08:25.661Z,10.3
2019-04-10T08:09:24.776Z,10.2
2019-04-10T08:10:24.896Z,10
2019-04-10T08:11:26.018Z,9.9
2019-04-10T08:12:32.358Z,10.5
2019-04-10T08:13:25.057Z,10.7
2019-04-10T08:14:25.052Z,10.5
2019-04-10T08:15:25.226Z,10
2019-04-10T08:16:25.471Z,9.9
2019-04-10T08:17:25.897Z,10.1
2019-04-10T08:18:25.480Z,10.1
2019-04-10T08:19:27.550Z,10.1
2019-04-10T08:20:26.100Z,10
2019-04-10T08:21:25.535Z,10.2
2019-04-10T08:22:26.411Z,10.3
2019-04-10T08:23:26.038Z,10.2
2019-04-10T08:24:26.656Z,10.4
2019-04-10T08:25:26.895Z,10.8
2019-04-10T08:26:25.767Z,10.8
2019-04-10T08:27:25.818Z,10.5
2019-04-10T08:28:27.032Z,10.5
2019-04-10T08:29:26.065Z,10.7
2019-04-10T08:30:26.023Z,11
2019-04-10T08:31:26.001Z,10.9
2019-04-10T08:32:26.088Z,10.8
2019-04-10T08:33:26.185Z,10.9
2019-04-10T08:34:26.202Z,10.6
2019-04-10T08:35:26.256Z,10.2
2019-04-10T08:36:26.325Z,10.2
2019-04-10T08:37:26.609Z,10.3
2019-04-10T08:38:28.018Z,10.4
2019-04-10T08:39:33.082Z,10.5
2019-04-10T08:40:27.764Z,10.5
2019-04-10T08:41:27.111Z,10.4
2019-04-10T08:42:27.310Z,10.6
2019-04-10T08:43:27.777Z,11
2019-04-10T08:44:27.711Z,11.1
2019-04-10T08:45:37.148Z,11
2019-04-10T08:46:26.805Z,10.8
2019-04-10T08:47:26.987Z,11.1
2019-04-10T08:48:28.705Z,11
2019-04-10T08:49:28.269Z,10.7
2019-04-10T08:50:28.041Z,10.7
2019-04-10T08:51:27.682Z,10.9
2019-04-10T08:52:28.278Z,11
2019-04-10T08:53:28.394Z,11.5
2019-04-10T08:54:28.082Z,11.8
2019-04-10T08:55:28.204Z,11.6
2019-04-10T08:56:28.488Z,11.3
2019-04-10T08:57:27.946Z,11
2019-04-10T08:58:27.581Z,11.1
2019-04-10T08:59:27.856Z,11.3
2019-04-10T09:00:28.970Z,11.1
2019-04-10T09:01:27.983Z,11
2019-04-10T09:02:28.276Z,11.2
2019-04-10T09:03:28.138Z,11.4
2019-04-10T09:04:28.669Z,11.8
2019-04-10T09:05:27.943Z,12.1
2019-04-10T09:06:28.007Z,12.1
2019-04-10T09:07:28.441Z,12.2
2019-04-10T09:08:28.794Z,12.2
2019-04-10T09:09:28.178Z,12.2
2019-04-10T09:10:28.249Z,12.2
2019-04-10T09:11:30.037Z,12.1
2019-04-10T09:12:29.568Z,12.2
2019-04-10T09:13:28.605Z,12.8
2019-04-10T09:14:29.609Z,13
2019-04-10T09:15:28.521Z,12.3
2019-04-10T09:16:28.857Z,28.6
2019-04-10T09:17:28.658Z,12.3
2019-04-10T09:18:29.472Z,11.6
2019-04-10T09:19:29.949Z,11.6
2019-04-10T09:20:28.925Z,11.5
2019-04-10T09:21:28.901Z,11.6
2019-04-10T09:22:36.910Z,11.5
2019-04-10T09:23:37.780Z,19.6
2019-04-10T09:24:30.042Z,11.9
2019-04-10T09:25:29.358Z,12.1
2019-04-10T09:26:29.150Z,12.1
2019-04-10T09:27:29.520Z,12
2019-04-10T09:28:30.601Z,12.1
2019-04-10T09:29:30.068Z,20.3
2019-04-10T09:30:29.526Z,12
2019-04-10T09:31:29.683Z,12.2
2019-04-10T09:32:30.741Z,12.4
2019-04-10T09:33:31.093Z,12.3
2019-04-10T09:34:29.754Z,12.3
2019-04-10T09:35:30.773Z,11.9
2019-04-10T09:36:29.702Z,19.8
2019-04-10T09:37:31.187Z,36.1
2019-04-10T09:38:30.601Z,11.7
2019-04-10T09:39:31.733Z,11.9
2019-04-10T09:40:30.472Z,12
2019-04-10T09:41:30.109Z,12.3
2019-04-10T09:42:31.058Z,12.4
2019-04-10T09:43:30.148Z,12.6
2019-04-10T09:44:30.149Z,13.2
2019-04-10T09:45:30.601Z,13.1
2019-04-10T09:46:31.032Z,12.8
2019-04-10T09:47:30.655Z,13
2019-04-10T09:48:32.004Z,12.7
2019-04-10T09:49:38.854Z,12.5
2019-04-10T09:50:31.386Z,12.3
2019-04-10T09:51:31.887Z,12.4
2019-04-10T09:52:32.047Z,12.5
2019-04-10T09:53:31.426Z,12.3
2019-04-10T09:54:32.871Z,12.2
2019-04-10T09:55:31.710Z,12.1
2019-04-10T09:56:48.169Z,12.2
2019-04-10T09:57:30.897Z,12.4
2019-04-10T09:58:31.806Z,12.3
2019-04-10T09:59:36.392Z,12.5
2019-04-10T10:00:31.901Z,12.8
2019-04-10T10:01:31.161Z,12.9
2019-04-10T10:02:32.145Z,12.8
2019-04-10T10:03:32.638Z,12.8
2019-04-10T10:04:32.071Z,12.8
2019-04-10T10:05:32.693Z,13.4
2019-04-10T10:06:35.146Z,13.7
2019-04-10T10:07:32.545Z,13.9
2019-04-10T10:08:31.692Z,14
2019-04-10T10:09:32.484Z,14.2
2019-04-10T10:10:34.316Z,14.2
2019-04-10T10:11:31.969Z,14.1
2019-04-10T10:12:32.208Z,14.3
2019-04-10T10:13:31.886Z,14.3
2019-04-10T10:14:33.283Z,14
2019-04-10T10:15:32.060Z,22.4
2019-04-10T10:16:32.176Z,15
2019-04-10T10:17:33.431Z,15.4
2019-04-10T10:18:33.105Z,14.7
2019-04-10T10:19:32.234Z,14.5
2019-04-10T10:20:32.182Z,14.2
2019-04-10T10:21:32.456Z,14.7
2019-04-10T10:22:32.221Z,14.6
2019-04-10T10:23:32.293Z,22.4
2019-04-10T10:24:32.923Z,14.5
2019-04-10T10:25:32.428Z,14.1
2019-04-10T10:26:32.961Z,14
2019-04-10T10:27:32.558Z,14.2
2019-04-10T10:28:33.194Z,14.4
2019-04-10T10:29:33.520Z,14.1
2019-04-10T10:30:33.678Z,14.3
2019-04-10T10:31:32.792Z,15.2
2019-04-10T10:32:33.171Z,15.5
2019-04-10T10:33:34.004Z,15.1
2019-04-10T10:34:32.957Z,15.2
2019-04-10T10:35:33.459Z,15.2
2019-04-10T10:36:39.074Z,14.9
2019-04-10T10:37:34.714Z,15.3
2019-04-10T10:38:33.228Z,14.9
2019-04-10T10:39:33.255Z,15
2019-04-10T10:40:33.945Z,15
2019-04-10T10:41:33.935Z,15.4
2019-04-10T10:42:33.833Z,15.4
2019-04-10T10:43:34.265Z,15.2
2019-04-10T10:44:34.138Z,15.1
2019-04-10T10:45:34.742Z,14.8
2019-04-10T10:46:33.646Z,14.9
2019-04-10T10:47:36.144Z,15.5
2019-04-10T10:48:35.776Z,15.3
2019-04-10T10:49:34.757Z,15.4
2019-04-10T10:50:33.813Z,14.8
2019-04-10T10:51:35.004Z,14.9
2019-04-10T10:52:35.355Z,14.8
2019-04-10T10:53:34.534Z,15
2019-04-10T10:54:34.902Z,14.9
2019-04-10T10:55:35.802Z,14.8
2019-04-10T10:56:34.275Z,14.8
2019-04-10T10:57:35.578Z,14.6
2019-04-10T10:58:35.253Z,14.5
2019-04-10T10:59:35.552Z,14.9
2019-04-10T11:00:35.476Z,14.8
2019-04-10T11:01:34.525Z,15.3
2019-04-10T11:02:35.783Z,15.4
2019-04-10T11:03:34.874Z,15.1
2019-04-10T11:04:35.609Z,14.9
2019-04-10T11:05:35.081Z,15
2019-04-10T11:06:35.060Z,15.1
2019-04-10T11:07:36.243Z,14.8
2019-04-10T11:08:35.777Z,14.6
2019-04-10T11:09:35.900Z,14.5
2019-04-10T11:10:35.127Z,14.9
2019-04-10T11:11:35.063Z,14.6
2019-04-10T11:12:35.755Z,14.8
2019-04-10T11:13:35.162Z,15.4
2019-04-10T11:14:35.579Z,14.9
2019-04-10T11:15:37.734Z,14
2019-04-10T11:16:35.338Z,14.3
2019-04-10T11:17:40.418Z,14
2019-04-10T11:18:35.754Z,14.5
2019-04-10T11:19:37.116Z,14.8
2019-04-10T11:20:36.347Z,14.6
2019-04-10T11:21:35.645Z,14.5
2019-04-10T11:22:35.661Z,14.5
2019-04-10T11:23:36.379Z,14.3
2019-04-10T11:24:35.805Z,14.2
2019-04-10T11:25:36.039Z,13.9
2019-04-10T11:26:36.204Z,13.8
2019-04-10T11:27:39.301Z,13.9
2019-04-10T11:28:36.841Z,14.1
2019-04-10T11:29:37.640Z,14.1
2019-04-10T11:30:36.698Z,14.2
2019-04-10T11:31:38.569Z,14.8
2019-04-10T11:32:38.022Z,14.8
2019-04-10T11:33:37.272Z,14.8
2019-04-10T11:34:36.404Z,14.5
2019-04-10T11:35:39.643Z,14.5
2019-04-10T11:36:37.897Z,15
2019-04-10T11:37:44.334Z,15.5
2019-04-10T11:38:37.487Z,15.4
2019-04-10T11:39:38.249Z,15.3
2019-04-10T11:40:36.725Z,15.1
2019-04-10T11:41:41.161Z,15
2019-04-10T11:42:37.317Z,14.6
2019-04-10T11:43:37.626Z,14.3
2019-04-10T11:44:45.572Z,14.4
2019-04-10T11:45:41.780Z,14.9
2019-04-10T11:46:41.837Z,30.2
2019-04-10T11:47:37.317Z,14.7
2019-04-10T11:48:39.086Z,14.7
2019-04-10T11:49:42.526Z,14.9
2019-04-10T11:50:39.534Z,15.1
2019-04-10T11:51:38.919Z,15.6
2019-04-10T11:52:47.929Z,15.8
2019-04-10T11:53:42.246Z,15.7
2019-04-10T11:54:41.158Z,15.4
2019-04-10T11:55:43.591Z,15.5
2019-04-10T11:56:40.242Z,15.4
2019-04-10T11:57:48.936Z,15.3
2019-04-10T11:58:55.556Z,14.9
2019-04-10T11:59:45.661Z,14.7
2019-04-10T12:00:47.222Z,14.2
2019-04-10T12:01:46.199Z,14.5
2019-04-10T12:02:43.155Z,14.9
2019-04-10T12:03:41.531Z,15.2
2019-04-10T12:04:47.894Z,22.9
2019-04-10T12:05:51.685Z,14.9
2019-04-10T12:06:46.550Z,14.7
2019-04-10T12:08:07.552Z,14.2
2019-04-10T12:09:02.390Z,14
2019-04-10T12:11:41.519Z,14.3
2019-04-10T12:12:42.161Z,14.3
2019-04-10T12:13:40.757Z,14
2019-04-10T12:14:40.298Z,14.2
2019-04-10T12:15:40.714Z,14.3
2019-04-10T12:16:42.893Z,14.4
2019-04-10T12:17:47.756Z,14.3
2019-04-10T12:18:52.849Z,14.4
2019-04-10T12:19:44.756Z,14.4
2019-04-10T12:20:45.500Z,14.6
2019-04-10T12:21:39.946Z,14.9
2019-04-10T12:22:41.136Z,15
2019-04-10T12:23:45.262Z,14.9
2019-04-10T12:24:42.597Z,14.4
2019-04-10T12:25:32.256Z,14.4
2019-04-10T12:27:09.376Z,14.1
2019-04-10T12:27:39.437Z,14.2
2019-04-10T12:28:40.250Z,13.9
2019-04-10T12:29:44.963Z,14
2019-04-10T12:29:46.683Z,13.9
2019-04-10T12:30:39.575Z,14.2
2019-04-10T12:34:44.811Z,14.5
2019-04-10T12:35:40.401Z,14.6
2019-04-10T12:36:42.724Z,14.5
2019-04-10T12:38:13.291Z,14.6
2019-04-10T12:38:40.476Z,14.2
2019-04-10T12:39:39.908Z,14.1
2019-04-10T12:40:44.603Z,14.4
2019-04-10T12:41:41.605Z,14.4
2019-04-10T12:42:41.592Z,14.3
2019-04-10T12:43:45.148Z,14.1
2019-04-10T12:44:40.950Z,13.7
2019-04-10T12:45:41.333Z,14
2019-04-10T12:46:43.548Z,14.3
2019-04-10T12:46:43.548Z,14
2019-04-10T12:47:40.492Z,14.4
2019-04-10T12:48:41.086Z,14.2
2019-04-10T12:49:17.089Z,14.2
2019-04-10T12:50:08.217Z,14.3
2019-04-10T12:50:41.256Z,14.4
2019-04-10T12:51:41.529Z,14.3
2019-04-10T12:52:41.315Z,14.3
2019-04-10T12:52:41.344Z,14.3
2019-04-10T12:53:40.707Z,14.1
2019-04-10T12:54:42.763Z,13.9
2019-04-10T12:55:35.269Z,13.9
2019-04-10T12:55:41.883Z,14
2019-04-10T12:56:40.854Z,14
2019-04-10T12:58:17.131Z,14
2019-04-10T12:59:06.864Z,14.3
2019-04-10T12:59:41.710Z,14
2019-04-10T13:00:42.734Z,13.7
2019-04-10T13:01:38.609Z,13.7
2019-04-10T13:02:02.852Z,13.6
2019-04-10T13:02:41.203Z,13.6
2019-04-10T13:03:41.295Z,13.6
2019-04-10T13:04:13.788Z,13.6
2019-04-10T13:04:41.351Z,13.8
2019-04-10T13:05:41.396Z,14.1
2019-04-10T13:06:46.386Z,14.1
2019-04-10T13:07:43.608Z,14
2019-04-10T13:08:55.619Z,13.9
2019-04-10T13:09:20.610Z,13.9
2019-04-10T13:09:42.301Z,14.1
2019-04-10T13:10:41.701Z,14.3
2019-04-10T13:11:42.689Z,14.2
2019-04-10T13:12:41.827Z,14.4
2019-04-10T13:13:42.156Z,14.2
2019-04-10T13:14:43.072Z,14.1
2019-04-10T13:15:41.999Z,14.1
2019-04-10T13:16:42.828Z,14.3
2019-04-10T13:17:42.716Z,14.4
2019-04-10T13:18:42.767Z,14.7
2019-04-10T13:19:42.913Z,14.9
2019-04-10T13:20:42.269Z,14.8
2019-04-10T13:21:42.461Z,14.6
2019-04-10T13:22:42.639Z,14.7
2019-04-10T13:23:42.500Z,14.5
2019-04-10T13:24:42.494Z,14.5
2019-04-10T13:25:42.753Z,14.6
2019-04-10T13:26:42.607Z,14.6
2019-04-10T13:27:43.168Z,14.7
2019-04-10T13:28:43.772Z,14.5
2019-04-10T13:29:42.818Z,14.5
2019-04-10T13:30:48.765Z,14.5
2019-04-10T13:31:42.931Z,14.9
2019-04-10T13:32:42.971Z,15.1
2019-04-10T13:33:43.050Z,15.2
2019-04-10T13:34:43.747Z,15.3
2019-04-10T13:35:43.257Z,15.5
2019-04-10T13:36:43.889Z,15.4
2019-04-10T13:37:43.494Z,15.3
2019-04-10T13:38:44.298Z,15.5
2019-04-10T13:39:43.390Z,15.8
2019-04-10T13:40:43.754Z,15.7
2019-04-10T13:41:43.511Z,15.6